sensor_id;sensor_type;location;lat;lon;timestamp;temperature;humidity
8093;DHT22;4089;52.420;13.334;2023-10-13T00:00:35;14.50;99.90
8093;DHT22;4089;52.420;13.334;2023-10-13T00:03:08;14.50;99.90
8093;DHT22;4089;52.420;13.334;2023-10-13T00:05:42;14.50;99.90
8093;DHT22;4089;52.420;13.334;2023-10-13T00:08:10;14.40;99.90
8093;DHT22;4089;52.420;13.334;2023-10-13T00:10:37;14.40;99.90
8093;DHT22;4089;52.420;13.334;2023-10-13T00:13:04;14.50;99.90
8093;DHT22;4089;52.420;13.334;2023-10-13T00:15:43;14.50;99.90
8093;DHT22;4089;52.420;13.334;2023-10-13T00:18:31;14.40;99.90
8093;DHT22;4089;52.420;13.334;2023-10-13T00:21:02;14.40;99.90
8093;DHT22;4089;52.420;13.334;2023-10-13T00:23:52;14.40;99.90
8093;DHT22;4089;52.420;13.334;2023-10-13T00:26:23;14.50;99.90
8093;DHT22;4089;52.420;13.334;2023-10-13T00:28:59;14.40;99.90
8093;DHT22;4089;52.420;13.334;2023-10-13T00:31:37;14.40;99.90
8093;DHT22;4089;52.420;13.334;2023-10-13T00:34:07;14.50;99.90
8093;DHT22;4089;52.420;13.334;2023-10-13T00:36:52;14.50;99.90
8093;DHT22;4089;52.420;13.334;2023-10-13T00:39:38;14.50;99.90
8093;DHT22;4089;52.420;13.334;2023-10-13T00:42:12;14.50;99.90
8093;DHT22;4089;52.420;13.334;2023-10-13T00:44:47;14.50;99.90
8093;DHT22;4089;52.420;13.334;2023-10-13T00:47:18;14.50;99.90
8093;DHT22;4089;52.420;13.334;2023-10-13T00:50:20;14.50;99.90
8093;DHT22;4089;52.420;13.334;2023-10-13T00:52:47;14.50;99.90
8093;DHT22;4089;52.420;13.334;2023-10-13T00:55:19;14.50;99.90
8093;DHT22;4089;52.420;13.334;2023-10-13T00:57:54;14.50;99.90
8093;DHT22;4089;52.420;13.334;2023-10-13T01:00:24;14.50;99.90
8093;DHT22;4089;52.420;13.334;2023-10-13T01:02:55;14.50;99.90
8093;DHT22;4089;52.420;13.334;2023-10-13T01:05:34;14.50;99.90
8093;DHT22;4089;52.420;13.334;2023-10-13T01:08:01;14.60;99.90
8093;DHT22;4089;52.420;13.334;2023-10-13T01:10:28;14.60;99.90
8093;DHT22;4089;52.420;13.334;2023-10-13T01:12:59;14.60;99.90
8093;DHT22;4089;52.420;13.334;2023-10-13T01:15:28;14.50;99.90
8093;DHT22;4089;52.420;13.334;2023-10-13T01:18:07;14.50;99.90
8093;DHT22;4089;52.420;13.334;2023-10-13T01:20:40;14.50;99.90
8093;DHT22;4089;52.420;13.334;2023-10-13T01:23:12;14.50;99.90
8093;DHT22;4089;52.420;13.334;2023-10-13T01:25:46;14.50;99.90
8093;DHT22;4089;52.420;13.334;2023-10-13T01:28:14;14.60;99.90
8093;DHT22;4089;52.420;13.334;2023-10-13T01:30:43;14.50;99.90
8093;DHT22;4089;52.420;13.334;2023-10-13T01:33:17;14.50;99.90
8093;DHT22;4089;52.420;13.334;2023-10-13T01:35:53;14.50;99.90
8093;DHT22;4089;52.420;13.334;2023-10-13T01:38:22;14.50;99.90
8093;DHT22;4089;52.420;13.334;2023-10-13T01:40:48;14.50;99.90
8093;DHT22;4089;52.420;13.334;2023-10-13T01:43:18;14.50;99.90
8093;DHT22;4089;52.420;13.334;2023-10-13T01:45:45;14.40;99.90
8093;DHT22;4089;52.420;13.334;2023-10-13T01:48:16;14.40;99.90
8093;DHT22;4089;52.420;13.334;2023-10-13T01:50:48;14.50;99.90
8093;DHT22;4089;52.420;13.334;2023-10-13T01:53:22;14.40;99.90
8093;DHT22;4089;52.420;13.334;2023-10-13T01:55:49;14.50;99.90
8093;DHT22;4089;52.420;13.334;2023-10-13T01:58:17;14.50;99.90
8093;DHT22;4089;52.420;13.334;2023-10-13T02:00:50;14.50;99.90
8093;DHT22;4089;52.420;13.334;2023-10-13T02:03:17;14.50;99.90
8093;DHT22;4089;52.420;13.334;2023-10-13T02:05:45;14.50;99.90
8093;DHT22;4089;52.420;13.334;2023-10-13T02:08:20;14.50;99.90
8093;DHT22;4089;52.420;13.334;2023-10-13T02:10:51;14.50;99.90
8093;DHT22;4089;52.420;13.334;2023-10-13T02:13:19;14.50;99.90
8093;DHT22;4089;52.420;13.334;2023-10-13T02:15:47;14.50;99.90
8093;DHT22;4089;52.420;13.334;2023-10-13T02:18:16;14.50;99.90
8093;DHT22;4089;52.420;13.334;2023-10-13T02:21:08;14.50;99.90
8093;DHT22;4089;52.420;13.334;2023-10-13T02:23:42;14.40;99.90
8093;DHT22;4089;52.420;13.334;2023-10-13T02:26:13;14.40;99.90
8093;DHT22;4089;52.420;13.334;2023-10-13T02:28:58;14.50;99.90
8093;DHT22;4089;52.420;13.334;2023-10-13T02:31:27;14.60;99.90
8093;DHT22;4089;52.420;13.334;2023-10-13T02:33:54;14.60;99.90
8093;DHT22;4089;52.420;13.334;2023-10-13T02:36:22;14.50;99.90
8093;DHT22;4089;52.420;13.334;2023-10-13T02:39:06;14.50;99.90
8093;DHT22;4089;52.420;13.334;2023-10-13T02:41:36;14.50;99.90
8093;DHT22;4089;52.420;13.334;2023-10-13T02:44:06;14.50;99.90
8093;DHT22;4089;52.420;13.334;2023-10-13T02:46:34;14.50;99.90
8093;DHT22;4089;52.420;13.334;2023-10-13T02:49:07;14.50;99.90
8093;DHT22;4089;52.420;13.334;2023-10-13T02:51:38;14.60;99.90
8093;DHT22;4089;52.420;13.334;2023-10-13T02:54:10;14.60;99.90
8093;DHT22;4089;52.420;13.334;2023-10-13T02:56:39;14.60;99.90
8093;DHT22;4089;52.420;13.334;2023-10-13T02:59:27;14.60;99.90
8093;DHT22;4089;52.420;13.334;2023-10-13T03:02:02;14.60;99.90
8093;DHT22;4089;52.420;13.334;2023-10-13T03:04:34;14.60;99.90
8093;DHT22;4089;52.420;13.334;2023-10-13T03:07:02;14.60;99.90
8093;DHT22;4089;52.420;13.334;2023-10-13T03:09:29;14.60;99.90
8093;DHT22;4089;52.420;13.334;2023-10-13T03:11:56;14.60;99.90
8093;DHT22;4089;52.420;13.334;2023-10-13T03:14:23;14.70;99.90
8093;DHT22;4089;52.420;13.334;2023-10-13T03:16:57;14.70;99.90
8093;DHT22;4089;52.420;13.334;2023-10-13T03:19:33;14.70;99.90
8093;DHT22;4089;52.420;13.334;2023-10-13T03:22:04;14.70;99.90
8093;DHT22;4089;52.420;13.334;2023-10-13T03:24:39;14.70;99.90
8093;DHT22;4089;52.420;13.334;2023-10-13T03:27:19;14.70;99.90
8093;DHT22;4089;52.420;13.334;2023-10-13T03:29:50;14.60;99.90
8093;DHT22;4089;52.420;13.334;2023-10-13T03:32:23;14.60;99.90
8093;DHT22;4089;52.420;13.334;2023-10-13T03:34:53;14.60;99.90
8093;DHT22;4089;52.420;13.334;2023-10-13T03:37:39;14.70;99.90
8093;DHT22;4089;52.420;13.334;2023-10-13T03:40:11;14.70;99.90
8093;DHT22;4089;52.420;13.334;2023-10-13T03:45:38;14.80;99.90
8093;DHT22;4089;52.420;13.334;2023-10-13T03:48:15;14.80;99.90
8093;DHT22;4089;52.420;13.334;2023-10-13T03:50:56;14.80;99.90
8093;DHT22;4089;52.420;13.334;2023-10-13T03:53:42;14.80;99.90
8093;DHT22;4089;52.420;13.334;2023-10-13T03:56:27;14.80;99.90
8093;DHT22;4089;52.420;13.334;2023-10-13T03:58:59;14.80;99.90
8093;DHT22;4089;52.420;13.334;2023-10-13T04:01:27;14.80;99.90
8093;DHT22;4089;52.420;13.334;2023-10-13T04:04:16;14.70;99.90
8093;DHT22;4089;52.420;13.334;2023-10-13T04:06:56;14.70;99.90
8093;DHT22;4089;52.420;13.334;2023-10-13T04:09:32;14.70;99.90
8093;DHT22;4089;52.420;13.334;2023-10-13T04:12:00;14.70;99.90
8093;DHT22;4089;52.420;13.334;2023-10-13T04:14:39;14.60;99.90
8093;DHT22;4089;52.420;13.334;2023-10-13T04:17:25;14.50;99.90
8093;DHT22;4089;52.420;13.334;2023-10-13T04:19:58;14.60;99.90
8093;DHT22;4089;52.420;13.334;2023-10-13T04:22:42;14.60;99.90
8093;DHT22;4089;52.420;13.334;2023-10-13T04:25:24;14.60;99.90
8093;DHT22;4089;52.420;13.334;2023-10-13T04:28:12;14.60;99.90
8093;DHT22;4089;52.420;13.334;2023-10-13T04:30:47;14.60;99.90
8093;DHT22;4089;52.420;13.334;2023-10-13T04:33:29;14.60;99.90
8093;DHT22;4089;52.420;13.334;2023-10-13T04:38:43;14.60;99.90
8093;DHT22;4089;52.420;13.334;2023-10-13T04:41:29;14.60;99.90
8093;DHT22;4089;52.420;13.334;2023-10-13T04:44:13;14.60;99.90
8093;DHT22;4089;52.420;13.334;2023-10-13T04:47:00;14.60;99.90
8093;DHT22;4089;52.420;13.334;2023-10-13T04:49:31;14.60;99.90
8093;DHT22;4089;52.420;13.334;2023-10-13T04:52:04;14.60;99.90
8093;DHT22;4089;52.420;13.334;2023-10-13T04:54:33;14.50;99.90
8093;DHT22;4089;52.420;13.334;2023-10-13T04:57:12;14.50;99.90
8093;DHT22;4089;52.420;13.334;2023-10-13T04:59:59;14.50;99.90
8093;DHT22;4089;52.420;13.334;2023-10-13T05:02:41;14.60;99.90
8093;DHT22;4089;52.420;13.334;2023-10-13T05:05:10;14.60;99.90
8093;DHT22;4089;52.420;13.334;2023-10-13T05:07:43;14.60;99.90
8093;DHT22;4089;52.420;13.334;2023-10-13T05:10:30;14.60;99.90
8093;DHT22;4089;52.420;13.334;2023-10-13T05:13:16;14.60;99.90
8093;DHT22;4089;52.420;13.334;2023-10-13T05:16:01;14.60;99.90
8093;DHT22;4089;52.420;13.334;2023-10-13T05:18:47;14.70;99.90
8093;DHT22;4089;52.420;13.334;2023-10-13T05:21:32;14.70;99.90
8093;DHT22;4089;52.420;13.334;2023-10-13T05:24:18;14.70;99.90
8093;DHT22;4089;52.420;13.334;2023-10-13T05:27:04;14.70;99.90
8093;DHT22;4089;52.420;13.334;2023-10-13T05:29:49;14.70;99.90
8093;DHT22;4089;52.420;13.334;2023-10-13T05:32:34;14.80;99.90
8093;DHT22;4089;52.420;13.334;2023-10-13T05:35:21;14.80;99.90
8093;DHT22;4089;52.420;13.334;2023-10-13T05:38:06;14.90;99.90
8093;DHT22;4089;52.420;13.334;2023-10-13T05:41:02;14.90;99.90
8093;DHT22;4089;52.420;13.334;2023-10-13T05:43:51;14.80;99.90
8093;DHT22;4089;52.420;13.334;2023-10-13T05:46:37;14.80;99.90
8093;DHT22;4089;52.420;13.334;2023-10-13T05:49:05;14.90;99.90
8093;DHT22;4089;52.420;13.334;2023-10-13T05:51:36;14.90;99.90
8093;DHT22;4089;52.420;13.334;2023-10-13T05:54:06;14.90;99.90
8093;DHT22;4089;52.420;13.334;2023-10-13T05:56:49;14.90;99.90
8093;DHT22;4089;52.420;13.334;2023-10-13T05:59:36;15.00;99.90
8093;DHT22;4089;52.420;13.334;2023-10-13T06:02:23;15.00;99.90
8093;DHT22;4089;52.420;13.334;2023-10-13T06:05:10;15.00;99.90
8093;DHT22;4089;52.420;13.334;2023-10-13T06:07:57;15.00;99.90
8093;DHT22;4089;52.420;13.334;2023-10-13T06:10:44;15.00;99.90
8093;DHT22;4089;52.420;13.334;2023-10-13T06:13:29;15.00;99.90
8093;DHT22;4089;52.420;13.334;2023-10-13T06:16:17;15.00;99.90
8093;DHT22;4089;52.420;13.334;2023-10-13T06:19:02;15.10;99.90
8093;DHT22;4089;52.420;13.334;2023-10-13T06:21:49;15.10;99.90
8093;DHT22;4089;52.420;13.334;2023-10-13T06:24:35;15.10;99.90
8093;DHT22;4089;52.420;13.334;2023-10-13T06:27:20;15.20;99.90
8093;DHT22;4089;52.420;13.334;2023-10-13T06:30:06;15.20;99.90
8093;DHT22;4089;52.420;13.334;2023-10-13T06:32:33;15.30;99.90
8093;DHT22;4089;52.420;13.334;2023-10-13T06:35:00;15.30;99.90
8093;DHT22;4089;52.420;13.334;2023-10-13T06:37:53;15.30;99.90
8093;DHT22;4089;52.420;13.334;2023-10-13T06:40:20;15.30;99.90
8093;DHT22;4089;52.420;13.334;2023-10-13T06:43:00;15.30;99.90
8093;DHT22;4089;52.420;13.334;2023-10-13T06:45:39;15.30;99.90
8093;DHT22;4089;52.420;13.334;2023-10-13T06:48:07;15.30;99.90
8093;DHT22;4089;52.420;13.334;2023-10-13T06:50:38;15.40;99.90
8093;DHT22;4089;52.420;13.334;2023-10-13T06:53:13;15.50;99.90
8093;DHT22;4089;52.420;13.334;2023-10-13T06:55:40;15.50;99.90
8093;DHT22;4089;52.420;13.334;2023-10-13T06:58:07;15.60;99.90
8093;DHT22;4089;52.420;13.334;2023-10-13T07:00:41;15.70;99.90
8093;DHT22;4089;52.420;13.334;2023-10-13T07:03:08;15.80;99.90
8093;DHT22;4089;52.420;13.334;2023-10-13T07:05:48;15.90;99.90
8093;DHT22;4089;52.420;13.334;2023-10-13T07:08:15;16.00;99.90
8093;DHT22;4089;52.420;13.334;2023-10-13T07:10:53;16.10;99.90
8093;DHT22;4089;52.420;13.334;2023-10-13T07:13:30;16.20;99.90
8093;DHT22;4089;52.420;13.334;2023-10-13T07:15:59;16.30;99.90
8093;DHT22;4089;52.420;13.334;2023-10-13T07:18:40;16.30;99.90
8093;DHT22;4089;52.420;13.334;2023-10-13T07:21:16;16.40;99.90
8093;DHT22;4089;52.420;13.334;2023-10-13T07:23:43;16.40;99.90
8093;DHT22;4089;52.420;13.334;2023-10-13T07:26:27;16.40;99.90
8093;DHT22;4089;52.420;13.334;2023-10-13T07:28:55;16.50;99.90
8093;DHT22;4089;52.420;13.334;2023-10-13T07:31:22;16.60;99.90
8093;DHT22;4089;52.420;13.334;2023-10-13T07:33:53;16.60;99.90
8093;DHT22;4089;52.420;13.334;2023-10-13T07:36:32;16.70;99.90
8093;DHT22;4089;52.420;13.334;2023-10-13T07:39:06;16.70;99.90
8093;DHT22;4089;52.420;13.334;2023-10-13T07:41:51;16.80;99.90
8093;DHT22;4089;52.420;13.334;2023-10-13T07:44:24;16.80;99.90
8093;DHT22;4089;52.420;13.334;2023-10-13T07:46:59;16.90;99.90
8093;DHT22;4089;52.420;13.334;2023-10-13T07:49:30;16.90;99.90
8093;DHT22;4089;52.420;13.334;2023-10-13T07:52:01;17.00;99.90
8093;DHT22;4089;52.420;13.334;2023-10-13T07:54:42;17.00;99.90
8093;DHT22;4089;52.420;13.334;2023-10-13T07:57:09;17.00;99.90
8093;DHT22;4089;52.420;13.334;2023-10-13T07:59:42;17.10;99.90
8093;DHT22;4089;52.420;13.334;2023-10-13T08:02:18;17.20;99.90
8093;DHT22;4089;52.420;13.334;2023-10-13T08:05:09;17.20;99.90
8093;DHT22;4089;52.420;13.334;2023-10-13T08:07:36;17.30;99.90
8093;DHT22;4089;52.420;13.334;2023-10-13T08:10:06;17.30;99.90
8093;DHT22;4089;52.420;13.334;2023-10-13T08:12:36;17.30;99.90
8093;DHT22;4089;52.420;13.334;2023-10-13T08:15:04;17.30;99.90
8093;DHT22;4089;52.420;13.334;2023-10-13T08:17:59;17.40;99.90
8093;DHT22;4089;52.420;13.334;2023-10-13T08:20:31;17.40;99.90
8093;DHT22;4089;52.420;13.334;2023-10-13T08:23:04;17.50;99.90
8093;DHT22;4089;52.420;13.334;2023-10-13T08:25:41;17.50;99.90
8093;DHT22;4089;52.420;13.334;2023-10-13T08:28:26;17.60;99.90
8093;DHT22;4089;52.420;13.334;2023-10-13T08:31:23;17.70;99.90
8093;DHT22;4089;52.420;13.334;2023-10-13T08:33:55;17.70;99.90
8093;DHT22;4089;52.420;13.334;2023-10-13T08:36:34;17.80;99.90
8093;DHT22;4089;52.420;13.334;2023-10-13T08:39:04;17.80;99.90
8093;DHT22;4089;52.420;13.334;2023-10-13T08:41:51;17.80;99.90
8093;DHT22;4089;52.420;13.334;2023-10-13T08:44:44;17.80;99.90
8093;DHT22;4089;52.420;13.334;2023-10-13T08:47:19;17.70;99.90
8093;DHT22;4089;52.420;13.334;2023-10-13T08:49:52;17.80;99.90
8093;DHT22;4089;52.420;13.334;2023-10-13T08:52:38;17.80;99.90
8093;DHT22;4089;52.420;13.334;2023-10-13T08:55:17;17.80;99.90
8093;DHT22;4089;52.420;13.334;2023-10-13T08:58:13;17.90;99.90
8093;DHT22;4089;52.420;13.334;2023-10-13T09:00:42;18.00;99.90
8093;DHT22;4089;52.420;13.334;2023-10-13T09:03:40;18.00;99.90
8093;DHT22;4089;52.420;13.334;2023-10-13T09:06:15;18.10;99.90
8093;DHT22;4089;52.420;13.334;2023-10-13T09:08:46;18.10;99.90
8093;DHT22;4089;52.420;13.334;2023-10-13T09:11:34;18.00;99.90
8093;DHT22;4089;52.420;13.334;2023-10-13T09:14:16;18.00;99.90
8093;DHT22;4089;52.420;13.334;2023-10-13T09:17:04;18.10;99.90
8093;DHT22;4089;52.420;13.334;2023-10-13T09:19:49;18.10;99.90
8093;DHT22;4089;52.420;13.334;2023-10-13T09:22:27;18.20;99.90
8093;DHT22;4089;52.420;13.334;2023-10-13T09:24:59;18.10;99.90
8093;DHT22;4089;52.420;13.334;2023-10-13T09:27:31;18.20;99.90
8093;DHT22;4089;52.420;13.334;2023-10-13T09:30:00;18.20;99.90
8093;DHT22;4089;52.420;13.334;2023-10-13T09:33:04;18.20;99.90
8093;DHT22;4089;52.420;13.334;2023-10-13T09:35:44;18.20;99.90
8093;DHT22;4089;52.420;13.334;2023-10-13T09:38:16;18.20;99.90
8093;DHT22;4089;52.420;13.334;2023-10-13T09:40:44;18.10;99.90
8093;DHT22;4089;52.420;13.334;2023-10-13T09:43:18;18.10;99.90
8093;DHT22;4089;52.420;13.334;2023-10-13T09:45:47;18.00;99.90
8093;DHT22;4089;52.420;13.334;2023-10-13T09:48:38;18.00;99.90
8093;DHT22;4089;52.420;13.334;2023-10-13T09:51:13;18.00;99.90
8093;DHT22;4089;52.420;13.334;2023-10-13T09:53:44;18.10;99.90
8093;DHT22;4089;52.420;13.334;2023-10-13T09:56:43;18.10;99.90
8093;DHT22;4089;52.420;13.334;2023-10-13T09:59:31;18.10;99.90
8093;DHT22;4089;52.420;13.334;2023-10-13T10:02:06;18.10;99.90
8093;DHT22;4089;52.420;13.334;2023-10-13T10:04:36;18.20;99.90
8093;DHT22;4089;52.420;13.334;2023-10-13T10:07:25;18.30;99.90
8093;DHT22;4089;52.420;13.334;2023-10-13T10:10:01;18.50;99.90
8093;DHT22;4089;52.420;13.334;2023-10-13T10:12:52;18.60;99.90
8093;DHT22;4089;52.420;13.334;2023-10-13T10:15:36;18.60;99.90
8093;DHT22;4089;52.420;13.334;2023-10-13T10:18:23;18.60;99.90
8093;DHT22;4089;52.420;13.334;2023-10-13T10:21:03;18.60;99.90
8093;DHT22;4089;52.420;13.334;2023-10-13T10:23:34;18.60;99.90
8093;DHT22;4089;52.420;13.334;2023-10-13T10:26:14;18.60;99.90
8093;DHT22;4089;52.420;13.334;2023-10-13T10:28:43;18.60;99.90
8093;DHT22;4089;52.420;13.334;2023-10-13T10:31:11;18.60;99.90
8093;DHT22;4089;52.420;13.334;2023-10-13T10:33:44;18.60;99.90
8093;DHT22;4089;52.420;13.334;2023-10-13T10:36:12;18.60;99.90
8093;DHT22;4089;52.420;13.334;2023-10-13T10:38:54;18.50;99.90
8093;DHT22;4089;52.420;13.334;2023-10-13T10:41:29;18.40;99.90
8093;DHT22;4089;52.420;13.334;2023-10-13T10:44:17;18.40;99.90
8093;DHT22;4089;52.420;13.334;2023-10-13T10:47:16;18.40;99.90
8093;DHT22;4089;52.420;13.334;2023-10-13T10:49:59;18.40;99.90
8093;DHT22;4089;52.420;13.334;2023-10-13T10:52:27;18.50;99.90
8093;DHT22;4089;52.420;13.334;2023-10-13T10:55:00;18.50;99.90
8093;DHT22;4089;52.420;13.334;2023-10-13T10:57:27;18.40;99.90
8093;DHT22;4089;52.420;13.334;2023-10-13T11:00:04;18.40;99.90
8093;DHT22;4089;52.420;13.334;2023-10-13T11:02:41;18.50;99.90
8093;DHT22;4089;52.420;13.334;2023-10-13T11:05:08;18.50;99.90
8093;DHT22;4089;52.420;13.334;2023-10-13T11:07:46;18.60;99.90
8093;DHT22;4089;52.420;13.334;2023-10-13T11:10:18;18.60;99.90
8093;DHT22;4089;52.420;13.334;2023-10-13T11:13:05;18.60;99.90
8093;DHT22;4089;52.420;13.334;2023-10-13T11:15:45;18.70;99.90
8093;DHT22;4089;52.420;13.334;2023-10-13T11:18:12;18.70;99.90
8093;DHT22;4089;52.420;13.334;2023-10-13T11:20:49;18.70;99.90
8093;DHT22;4089;52.420;13.334;2023-10-13T11:23:22;18.80;99.90
8093;DHT22;4089;52.420;13.334;2023-10-13T11:25:59;18.80;99.90
8093;DHT22;4089;52.420;13.334;2023-10-13T11:28:27;18.80;99.90
8093;DHT22;4089;52.420;13.334;2023-10-13T11:30:58;18.90;99.90
8093;DHT22;4089;52.420;13.334;2023-10-13T11:33:27;18.90;99.90
8093;DHT22;4089;52.420;13.334;2023-10-13T11:35:56;19.00;99.90
8093;DHT22;4089;52.420;13.334;2023-10-13T11:38:28;19.00;99.90
8093;DHT22;4089;52.420;13.334;2023-10-13T11:41:04;19.00;99.90
8093;DHT22;4089;52.420;13.334;2023-10-13T11:43:39;19.00;99.90
8093;DHT22;4089;52.420;13.334;2023-10-13T11:46:16;19.10;99.90
8093;DHT22;4089;52.420;13.334;2023-10-13T11:48:45;19.10;99.90
8093;DHT22;4089;52.420;13.334;2023-10-13T11:51:21;19.20;99.90
8093;DHT22;4089;52.420;13.334;2023-10-13T11:53:51;19.30;99.90
8093;DHT22;4089;52.420;13.334;2023-10-13T11:56:22;19.30;99.90
8093;DHT22;4089;52.420;13.334;2023-10-13T11:58:50;19.40;99.90
8093;DHT22;4089;52.420;13.334;2023-10-13T12:01:17;19.50;99.90
8093;DHT22;4089;52.420;13.334;2023-10-13T12:03:49;19.50;99.90
8093;DHT22;4089;52.420;13.334;2023-10-13T12:06:35;19.60;99.90
8093;DHT22;4089;52.420;13.334;2023-10-13T12:09:14;19.70;99.90
8093;DHT22;4089;52.420;13.334;2023-10-13T12:11:49;19.70;99.90
8093;DHT22;4089;52.420;13.334;2023-10-13T12:14:21;19.70;99.90
8093;DHT22;4089;52.420;13.334;2023-10-13T12:16:49;19.80;99.90
8093;DHT22;4089;52.420;13.334;2023-10-13T12:19:23;19.80;99.90
8093;DHT22;4089;52.420;13.334;2023-10-13T12:21:51;19.90;99.90
8093;DHT22;4089;52.420;13.334;2023-10-13T12:24:24;20.00;99.90
8093;DHT22;4089;52.420;13.334;2023-10-13T12:27:05;20.20;99.90
8093;DHT22;4089;52.420;13.334;2023-10-13T12:29:51;20.20;99.90
8093;DHT22;4089;52.420;13.334;2023-10-13T12:32:23;20.30;99.90
8093;DHT22;4089;52.420;13.334;2023-10-13T12:34:57;20.30;99.90
8093;DHT22;4089;52.420;13.334;2023-10-13T12:37:31;20.30;99.90
8093;DHT22;4089;52.420;13.334;2023-10-13T12:40:06;20.40;99.90
8093;DHT22;4089;52.420;13.334;2023-10-13T12:42:53;20.40;99.90
8093;DHT22;4089;52.420;13.334;2023-10-13T12:45:42;20.40;99.90
8093;DHT22;4089;52.420;13.334;2023-10-13T12:48:28;20.50;99.90
8093;DHT22;4089;52.420;13.334;2023-10-13T12:51:15;20.60;99.90
8093;DHT22;4089;52.420;13.334;2023-10-13T12:54:07;20.60;99.90
8093;DHT22;4089;52.420;13.334;2023-10-13T12:56:43;20.60;99.90
8093;DHT22;4089;52.420;13.334;2023-10-13T12:59:10;20.70;99.90
8093;DHT22;4089;52.420;13.334;2023-10-13T13:01:40;20.80;99.90
8093;DHT22;4089;52.420;13.334;2023-10-13T13:04:12;20.80;99.90
8093;DHT22;4089;52.420;13.334;2023-10-13T13:06:46;20.80;99.90
8093;DHT22;4089;52.420;13.334;2023-10-13T13:09:13;20.80;99.90
8093;DHT22;4089;52.420;13.334;2023-10-13T13:11:40;21.00;99.90
8093;DHT22;4089;52.420;13.334;2023-10-13T13:14:07;21.10;99.90
8093;DHT22;4089;52.420;13.334;2023-10-13T13:16:35;21.10;99.90
8093;DHT22;4089;52.420;13.334;2023-10-13T13:19:05;21.20;99.90
8093;DHT22;4089;52.420;13.334;2023-10-13T13:21:41;21.40;99.90
8093;DHT22;4089;52.420;13.334;2023-10-13T13:24:08;21.50;99.90
8093;DHT22;4089;52.420;13.334;2023-10-13T13:26:40;21.60;99.90
8093;DHT22;4089;52.420;13.334;2023-10-13T13:29:07;21.70;99.90
8093;DHT22;4089;52.420;13.334;2023-10-13T13:31:37;21.80;99.90
8093;DHT22;4089;52.420;13.334;2023-10-13T13:34:11;21.90;99.90
8093;DHT22;4089;52.420;13.334;2023-10-13T13:36:41;21.80;99.90
8093;DHT22;4089;52.420;13.334;2023-10-13T13:39:11;21.70;99.90
8093;DHT22;4089;52.420;13.334;2023-10-13T13:41:38;21.70;99.90
8093;DHT22;4089;52.420;13.334;2023-10-13T13:44:05;21.70;99.90
8093;DHT22;4089;52.420;13.334;2023-10-13T13:46:41;21.80;99.90
8093;DHT22;4089;52.420;13.334;2023-10-13T13:49:09;21.90;99.90
8093;DHT22;4089;52.420;13.334;2023-10-13T13:51:45;21.90;99.90
8093;DHT22;4089;52.420;13.334;2023-10-13T13:54:19;22.00;99.90
8093;DHT22;4089;52.420;13.334;2023-10-13T13:56:47;22.00;99.90
8093;DHT22;4089;52.420;13.334;2023-10-13T13:59:14;22.10;99.90
8093;DHT22;4089;52.420;13.334;2023-10-13T14:01:46;22.10;99.90
8093;DHT22;4089;52.420;13.334;2023-10-13T14:04:14;22.20;99.90
8093;DHT22;4089;52.420;13.334;2023-10-13T14:06:44;22.20;99.90
8093;DHT22;4089;52.420;13.334;2023-10-13T14:09:12;22.30;99.90
8093;DHT22;4089;52.420;13.334;2023-10-13T14:11:43;22.40;99.90
8093;DHT22;4089;52.420;13.334;2023-10-13T14:14:28;22.40;99.90
8093;DHT22;4089;52.420;13.334;2023-10-13T14:16:55;22.50;99.90
8093;DHT22;4089;52.420;13.334;2023-10-13T14:19:35;22.40;99.90
8093;DHT22;4089;52.420;13.334;2023-10-13T14:22:08;22.40;99.90
8093;DHT22;4089;52.420;13.334;2023-10-13T14:24:39;22.40;99.90
8093;DHT22;4089;52.420;13.334;2023-10-13T14:27:14;22.40;99.90
8093;DHT22;4089;52.420;13.334;2023-10-13T14:29:45;22.40;99.90
8093;DHT22;4089;52.420;13.334;2023-10-13T14:32:13;22.50;99.90
8093;DHT22;4089;52.420;13.334;2023-10-13T14:34:46;22.50;99.90
8093;DHT22;4089;52.420;13.334;2023-10-13T14:37:21;22.40;99.90
8093;DHT22;4089;52.420;13.334;2023-10-13T14:39:58;22.50;99.90
8093;DHT22;4089;52.420;13.334;2023-10-13T14:42:27;22.60;99.90
8093;DHT22;4089;52.420;13.334;2023-10-13T14:44:54;22.60;99.90
8093;DHT22;4089;52.420;13.334;2023-10-13T14:47:25;22.60;99.90
8093;DHT22;4089;52.420;13.334;2023-10-13T14:49:53;22.50;99.90
8093;DHT22;4089;52.420;13.334;2023-10-13T14:52:27;22.40;99.90
8093;DHT22;4089;52.420;13.334;2023-10-13T14:54:53;22.30;99.90
8093;DHT22;4089;52.420;13.334;2023-10-13T14:57:23;22.20;99.90
8093;DHT22;4089;52.420;13.334;2023-10-13T14:59:54;22.20;99.90
8093;DHT22;4089;52.420;13.334;2023-10-13T15:02:21;22.20;99.90
8093;DHT22;4089;52.420;13.334;2023-10-13T15:04:48;22.20;99.90
8093;DHT22;4089;52.420;13.334;2023-10-13T15:07:16;22.20;99.90
8093;DHT22;4089;52.420;13.334;2023-10-13T15:09:44;22.20;99.90
8093;DHT22;4089;52.420;13.334;2023-10-13T15:12:11;22.10;99.90
8093;DHT22;4089;52.420;13.334;2023-10-13T15:14:44;22.10;99.90
8093;DHT22;4089;52.420;13.334;2023-10-13T15:17:11;22.10;99.90
8093;DHT22;4089;52.420;13.334;2023-10-13T15:19:43;22.00;99.90
8093;DHT22;4089;52.420;13.334;2023-10-13T15:22:10;22.00;99.90
8093;DHT22;4089;52.420;13.334;2023-10-13T15:24:43;22.00;99.90
8093;DHT22;4089;52.420;13.334;2023-10-13T15:27:12;22.00;99.90
8093;DHT22;4089;52.420;13.334;2023-10-13T15:29:39;22.00;99.90
8093;DHT22;4089;52.420;13.334;2023-10-13T15:32:06;21.90;99.90
8093;DHT22;4089;52.420;13.334;2023-10-13T15:34:53;21.90;99.90
8093;DHT22;4089;52.420;13.334;2023-10-13T15:37:21;21.80;99.90
8093;DHT22;4089;52.420;13.334;2023-10-13T15:39:52;21.70;99.90
8093;DHT22;4089;52.420;13.334;2023-10-13T15:42:19;21.70;99.90
8093;DHT22;4089;52.420;13.334;2023-10-13T15:44:47;21.70;99.90
8093;DHT22;4089;52.420;13.334;2023-10-13T15:47:16;21.60;99.90
8093;DHT22;4089;52.420;13.334;2023-10-13T15:49:47;21.50;99.90
8093;DHT22;4089;52.420;13.334;2023-10-13T15:52:14;21.50;99.90
8093;DHT22;4089;52.420;13.334;2023-10-13T15:54:42;21.50;99.90
8093;DHT22;4089;52.420;13.334;2023-10-13T15:57:10;21.50;99.90
8093;DHT22;4089;52.420;13.334;2023-10-13T15:59:43;21.40;99.90
8093;DHT22;4089;52.420;13.334;2023-10-13T16:02:13;21.50;99.90
8093;DHT22;4089;52.420;13.334;2023-10-13T16:04:43;21.50;99.90
8093;DHT22;4089;52.420;13.334;2023-10-13T16:07:11;21.40;99.90
8093;DHT22;4089;52.420;13.334;2023-10-13T16:09:38;21.40;99.90
8093;DHT22;4089;52.420;13.334;2023-10-13T16:12:05;21.40;99.90
8093;DHT22;4089;52.420;13.334;2023-10-13T16:14:37;21.40;99.90
8093;DHT22;4089;52.420;13.334;2023-10-13T16:17:04;21.30;99.90
8093;DHT22;4089;52.420;13.334;2023-10-13T16:19:33;21.30;99.90
8093;DHT22;4089;52.420;13.334;2023-10-13T16:22:00;21.20;99.90
8093;DHT22;4089;52.420;13.334;2023-10-13T16:24:27;21.30;99.90
8093;DHT22;4089;52.420;13.334;2023-10-13T16:26:54;21.20;99.90
8093;DHT22;4089;52.420;13.334;2023-10-13T16:29:23;21.20;99.90
8093;DHT22;4089;52.420;13.334;2023-10-13T16:31:50;21.20;99.90
8093;DHT22;4089;52.420;13.334;2023-10-13T16:34:17;21.20;99.90
8093;DHT22;4089;52.420;13.334;2023-10-13T16:36:45;21.10;99.90
8093;DHT22;4089;52.420;13.334;2023-10-13T16:39:14;21.10;99.90